メインページ
METAR-TAF:

METAR-TAF

空港 :

東京 / 羽田国際空港, 日本

東京国際空港

緯度: 35-33N, 経度: 139-47E, 海抜: 5m

現時点の気象観測

当レポートは25分前の09:11(UTC)に作成
北/北西の風 17kt、最大28ktの突風を伴う
気温 18°C
湿度 52%
気圧 1004 hPa
視程10km以上
高度2500ftの雲はほとんどない
高度3000ftの雲はほとんどない, 積乱雲.
高度6000ftの雲は散在している
高度11000ftの千切れ雲あり

METAR: RJTT 290911Z 34017G28KT 9999 FEW025 FEW030CB SCT060 BKN110 18/08 Q1004 RMK 1CU025 1CB030 3SC060 5AC110 A2966 P/RR LIGHTNING 35KM N-NE MOV E

時間: 18:36 (09:36 UTC)

予報

当レポートは4時間27分前の05:09(UTC)に作成
予報は29日の 06時(UTC)から 30日の 12時(UTC)まで有効
南/南西の風 20kt
視程10km以上
高度1000ftの雲はほとんどない
高度3000ftの千切れ雲あり
29日の 06時(UTC)から 29日の 08時(UTC)まで一時的に
南/南西の風 22kt、最大32ktの突風を伴う
29日の 08時(UTC)から 29日の 10時(UTC)まで徐々に
北東の風 8kt
29日の 08時(UTC)から 29日の 11時(UTC)まで一時的に
視程: 4000m
高度800ftの雲はほとんどない
高度1500ftの千切れ雲あり
高度2000ftの雲はほとんどない, 積乱雲.
激しい雷雨, 雨, 靄
30日の 00時(UTC)から 30日の 03時(UTC)まで徐々に
の風 20kt

TAF: RJTT 290509Z 2906/3012 20020KT 9999 FEW010 BKN030 TEMPO 2906/2908 20022G32KT BECMG 2908/2910 05008KT TEMPO 2908/2911 4000 TSRA BR FEW008 BKN015 FEW020CB BECMG 3000/3003 18020KT

4,000以上の空港の気象観測と天気予報(METAR報とTAF報)

利用可能な観測所は地図上に黄色い丸と赤い丸で示す。

丸の上にカーソルを重ねると観測所名を参照できる。

次にクリックすると気象観測と天気予報を参照できる。

マップの切り替え:黒色「×」印の緑ボタンをクリックして拡大、「-」印の緑ボタンをクリックして縮小、緑色の三角印をクリックして隣りの地図に切り替え


METAR-TAF: